CheckWX is a tool to help pilots better visualize weather data.  It is not intended as a substitute for an official pre-flight weather briefing.

22:57:01 UTC

KROC TAF
Greater Rochester International Airport Airport
Rochester, New York, USA
KROC 092337Z 1000/1024 07006KT P6SM SCT050 SCT100 BKN250 FM100200 VRB04KT P6SM SCT100 BKN250 FM100500 18004KT P6SM SCT250 FM102100 13010KT P6SM SCT060

Jul-10@
00:00 UTC

Jul-10 @ 00:00 UTC

Jul-10@
02:00 UTC

Jul-10 @ 02:00 UTC

TAF KROC 092337Z 1000/1024 07006KT P6SM SCT050 SCT100 BKN250

Expired

Wind
  • 070° at 6 KTS
Cloud Levels
  • Scattered at 5,000' AGL
  • Scattered at 10,000' AGL
  • Broken at 25,000' AGL

Jul-10@
02:00 UTC

Jul-10 @ 02:00 UTC

Jul-10@
05:00 UTC

Jul-10 @ 05:00 UTC

FM100200 VRB04KT P6SM SCT100 BKN250

Expired

Wind
  • Variable at 4 KTS
Cloud Levels
  • Scattered at 10,000' AGL
  • Broken at 25,000' AGL

Jul-10@
05:00 UTC

Jul-10 @ 05:00 UTC

Jul-10@
21:00 UTC

Jul-10 @ 21:00 UTC

FM100500 18004KT P6SM SCT250

Expired

Wind
  • 180° at 4 KTS
Cloud Levels
  • Scattered at 25,000' AGL

Jul-10@
21:00 UTC

Jul-10 @ 21:00 UTC

Jul-11@
00:00 UTC

Jul-11 @ 00:00 UTC

FM102100 13010KT P6SM SCT060

From

From Standard forecast or significant change

Wind
  • 130° at 10 KTS
Cloud Levels
  • Scattered at 6,000' AGL